sensor_id;sensor_type;location;lat;lon;timestamp;P1;durP1;ratioP1;P2;durP2;ratioP2
19554;SDS011;9924;50.828;6.440;2022-07-23T00:02:21;14.90;;;9.80;;
19554;SDS011;9924;50.828;6.440;2022-07-23T00:04:47;19.52;;;10.98;;
19554;SDS011;9924;50.828;6.440;2022-07-23T00:07:13;16.75;;;10.30;;
19554;SDS011;9924;50.828;6.440;2022-07-23T00:09:39;20.35;;;12.23;;
19554;SDS011;9924;50.828;6.440;2022-07-23T00:12:05;22.08;;;12.48;;
19554;SDS011;9924;50.828;6.440;2022-07-23T00:14:31;17.83;;;12.60;;
19554;SDS011;9924;50.828;6.440;2022-07-23T00:16:56;17.98;;;10.07;;
19554;SDS011;9924;50.828;6.440;2022-07-23T00:19:22;17.50;;;11.45;;
19554;SDS011;9924;50.828;6.440;2022-07-23T00:21:48;21.60;;;11.90;;
19554;SDS011;9924;50.828;6.440;2022-07-23T00:24:14;19.63;;;11.43;;
19554;SDS011;9924;50.828;6.440;2022-07-23T00:26:40;17.98;;;11.15;;
19554;SDS011;9924;50.828;6.440;2022-07-23T00:29:05;22.63;;;12.23;;
19554;SDS011;9924;50.828;6.440;2022-07-23T00:31:31;18.02;;;11.77;;
19554;SDS011;9924;50.828;6.440;2022-07-23T00:33:57;20.50;;;12.07;;
19554;SDS011;9924;50.828;6.440;2022-07-23T00:36:26;18.95;;;11.45;;
19554;SDS011;9924;50.828;6.440;2022-07-23T00:38:52;19.35;;;10.98;;
19554;SDS011;9924;50.828;6.440;2022-07-23T00:41:18;17.73;;;11.07;;
19554;SDS011;9924;50.828;6.440;2022-07-23T00:43:44;18.60;;;11.43;;
19554;SDS011;9924;50.828;6.440;2022-07-23T00:46:10;18.50;;;11.85;;
19554;SDS011;9924;50.828;6.440;2022-07-23T00:48:36;17.25;;;10.30;;
19554;SDS011;9924;50.828;6.440;2022-07-23T00:51:02;14.02;;;9.93;;
19554;SDS011;9924;50.828;6.440;2022-07-23T00:53:28;16.77;;;11.13;;
19554;SDS011;9924;50.828;6.440;2022-07-23T00:55:54;16.60;;;10.68;;
19554;SDS011;9924;50.828;6.440;2022-07-23T00:58:20;15.82;;;10.90;;
19554;SDS011;9924;50.828;6.440;2022-07-23T01:00:45;20.27;;;11.85;;
19554;SDS011;9924;50.828;6.440;2022-07-23T01:03:11;19.63;;;11.27;;
19554;SDS011;9924;50.828;6.440;2022-07-23T01:05:37;19.40;;;11.75;;
19554;SDS011;9924;50.828;6.440;2022-07-23T01:08:03;23.45;;;13.00;;
19554;SDS011;9924;50.828;6.440;2022-07-23T01:10:31;20.15;;;11.05;;
19554;SDS011;9924;50.828;6.440;2022-07-23T01:12:57;20.27;;;11.63;;
19554;SDS011;9924;50.828;6.440;2022-07-23T01:15:27;20.08;;;11.77;;
19554;SDS011;9924;50.828;6.440;2022-07-23T01:17:54;17.38;;;11.45;;
19554;SDS011;9924;50.828;6.440;2022-07-23T01:20:20;16.13;;;10.77;;
19554;SDS011;9924;50.828;6.440;2022-07-23T01:22:45;18.67;;;11.55;;
19554;SDS011;9924;50.828;6.440;2022-07-23T01:25:11;15.60;;;10.45;;
19554;SDS011;9924;50.828;6.440;2022-07-23T01:27:37;17.70;;;11.52;;
19554;SDS011;9924;50.828;6.440;2022-07-23T01:30:03;20.63;;;12.68;;
19554;SDS011;9924;50.828;6.440;2022-07-23T01:32:29;18.02;;;12.35;;
19554;SDS011;9924;50.828;6.440;2022-07-23T01:34:55;20.88;;;12.55;;
19554;SDS011;9924;50.828;6.440;2022-07-23T01:37:21;21.65;;;12.82;;
19554;SDS011;9924;50.828;6.440;2022-07-23T01:39:47;22.45;;;14.30;;
19554;SDS011;9924;50.828;6.440;2022-07-23T01:42:13;24.80;;;15.07;;
19554;SDS011;9924;50.828;6.440;2022-07-23T01:44:38;25.95;;;14.90;;
19554;SDS011;9924;50.828;6.440;2022-07-23T01:47:04;24.73;;;16.02;;
19554;SDS011;9924;50.828;6.440;2022-07-23T01:49:30;25.92;;;16.30;;
19554;SDS011;9924;50.828;6.440;2022-07-23T01:51:56;30.67;;;17.35;;
19554;SDS011;9924;50.828;6.440;2022-07-23T01:54:28;30.33;;;17.00;;
19554;SDS011;9924;50.828;6.440;2022-07-23T01:56:55;31.15;;;16.33;;
19554;SDS011;9924;50.828;6.440;2022-07-23T01:59:22;22.90;;;15.55;;
19554;SDS011;9924;50.828;6.440;2022-07-23T02:01:48;26.33;;;16.67;;
19554;SDS011;9924;50.828;6.440;2022-07-23T02:04:16;24.50;;;16.08;;
19554;SDS011;9924;50.828;6.440;2022-07-23T02:06:42;22.17;;;14.32;;
19554;SDS011;9924;50.828;6.440;2022-07-23T02:09:08;26.27;;;15.38;;
19554;SDS011;9924;50.828;6.440;2022-07-23T02:11:34;22.50;;;14.57;;
19554;SDS011;9924;50.828;6.440;2022-07-23T02:14:00;21.50;;;13.43;;
19554;SDS011;9924;50.828;6.440;2022-07-23T02:16:25;21.10;;;13.95;;
19554;SDS011;9924;50.828;6.440;2022-07-23T02:18:51;23.45;;;14.40;;
19554;SDS011;9924;50.828;6.440;2022-07-23T02:21:17;24.13;;;14.70;;
19554;SDS011;9924;50.828;6.440;2022-07-23T02:23:43;23.63;;;14.02;;
19554;SDS011;9924;50.828;6.440;2022-07-23T02:26:09;18.10;;;12.65;;
19554;SDS011;9924;50.828;6.440;2022-07-23T02:28:34;23.67;;;14.48;;
19554;SDS011;9924;50.828;6.440;2022-07-23T02:31:00;20.13;;;12.48;;
19554;SDS011;9924;50.828;6.440;2022-07-23T02:33:26;22.85;;;14.07;;
19554;SDS011;9924;50.828;6.440;2022-07-23T02:35:52;22.92;;;14.35;;
19554;SDS011;9924;50.828;6.440;2022-07-23T02:38:18;31.60;;;15.43;;
19554;SDS011;9924;50.828;6.440;2022-07-23T02:40:43;23.42;;;14.63;;
19554;SDS011;9924;50.828;6.440;2022-07-23T02:43:09;23.42;;;13.15;;
19554;SDS011;9924;50.828;6.440;2022-07-23T02:45:35;19.33;;;13.40;;
19554;SDS011;9924;50.828;6.440;2022-07-23T02:48:00;21.35;;;13.43;;
19554;SDS011;9924;50.828;6.440;2022-07-23T02:50:26;19.80;;;13.32;;
19554;SDS011;9924;50.828;6.440;2022-07-23T02:52:52;22.95;;;14.32;;
19554;SDS011;9924;50.828;6.440;2022-07-23T02:55:18;58.72;;;13.65;;
19554;SDS011;9924;50.828;6.440;2022-07-23T02:57:44;33.85;;;13.65;;
19554;SDS011;9924;50.828;6.440;2022-07-23T03:00:09;18.05;;;10.45;;
19554;SDS011;9924;50.828;6.440;2022-07-23T03:02:38;23.42;;;8.55;;
19554;SDS011;9924;50.828;6.440;2022-07-23T03:05:04;43.50;;;6.88;;
19554;SDS011;9924;50.828;6.440;2022-07-23T03:07:30;8.85;;;5.35;;
19554;SDS011;9924;50.828;6.440;2022-07-23T03:09:56;5.65;;;5.13;;
19554;SDS011;9924;50.828;6.440;2022-07-23T03:12:22;4.50;;;4.10;;
19554;SDS011;9924;50.828;6.440;2022-07-23T03:14:48;11.32;;;4.55;;
19554;SDS011;9924;50.828;6.440;2022-07-23T03:17:13;7.82;;;6.05;;
19554;SDS011;9924;50.828;6.440;2022-07-23T03:19:39;38.88;;;8.07;;
19554;SDS011;9924;50.828;6.440;2022-07-23T03:22:05;54.33;;;8.65;;
19554;SDS011;9924;50.828;6.440;2022-07-23T03:24:31;69.55;;;10.93;;
19554;SDS011;9924;50.828;6.440;2022-07-23T03:27:15;41.47;;;9.48;;
19554;SDS011;9924;50.828;6.440;2022-07-23T03:29:41;12.10;;;8.80;;
19554;SDS011;9924;50.828;6.440;2022-07-23T03:32:07;36.90;;;10.15;;
19554;SDS011;9924;50.828;6.440;2022-07-23T03:34:33;12.43;;;9.98;;
19554;SDS011;9924;50.828;6.440;2022-07-23T03:36:58;12.73;;;9.48;;
19554;SDS011;9924;50.828;6.440;2022-07-23T03:39:24;16.83;;;11.35;;
19554;SDS011;9924;50.828;6.440;2022-07-23T03:41:50;34.15;;;13.02;;
19554;SDS011;9924;50.828;6.440;2022-07-23T03:44:15;22.13;;;11.38;;
19554;SDS011;9924;50.828;6.440;2022-07-23T03:46:41;32.03;;;12.95;;
19554;SDS011;9924;50.828;6.440;2022-07-23T03:49:07;24.15;;;13.90;;
19554;SDS011;9924;50.828;6.440;2022-07-23T03:51:33;31.65;;;13.02;;
19554;SDS011;9924;50.828;6.440;2022-07-23T03:53:58;15.18;;;11.60;;
19554;SDS011;9924;50.828;6.440;2022-07-23T03:56:24;37.28;;;12.00;;
19554;SDS011;9924;50.828;6.440;2022-07-23T03:58:51;12.52;;;10.00;;
19554;SDS011;9924;50.828;6.440;2022-07-23T04:01:16;15.82;;;9.95;;
19554;SDS011;9924;50.828;6.440;2022-07-23T04:03:42;15.13;;;8.90;;
19554;SDS011;9924;50.828;6.440;2022-07-23T04:06:08;26.95;;;9.43;;
19554;SDS011;9924;50.828;6.440;2022-07-23T04:08:34;17.30;;;9.70;;
19554;SDS011;9924;50.828;6.440;2022-07-23T04:10:59;13.13;;;9.40;;
19554;SDS011;9924;50.828;6.440;2022-07-23T04:13:25;14.88;;;8.55;;
19554;SDS011;9924;50.828;6.440;2022-07-23T04:15:51;9.50;;;8.15;;
19554;SDS011;9924;50.828;6.440;2022-07-23T04:18:17;9.52;;;8.25;;
19554;SDS011;9924;50.828;6.440;2022-07-23T04:20:43;17.48;;;9.60;;
19554;SDS011;9924;50.828;6.440;2022-07-23T04:23:09;17.55;;;11.20;;
19554;SDS011;9924;50.828;6.440;2022-07-23T04:25:35;16.70;;;11.85;;
19554;SDS011;9924;50.828;6.440;2022-07-23T04:28:01;27.75;;;11.77;;
19554;SDS011;9924;50.828;6.440;2022-07-23T04:30:27;23.55;;;11.85;;
19554;SDS011;9924;50.828;6.440;2022-07-23T04:32:53;27.30;;;13.15;;
19554;SDS011;9924;50.828;6.440;2022-07-23T04:35:19;40.35;;;18.05;;
19554;SDS011;9924;50.828;6.440;2022-07-23T04:37:45;53.03;;;18.42;;
19554;SDS011;9924;50.828;6.440;2022-07-23T04:40:12;47.05;;;17.92;;
19554;SDS011;9924;50.828;6.440;2022-07-23T04:42:38;48.08;;;16.17;;
19554;SDS011;9924;50.828;6.440;2022-07-23T04:45:05;37.30;;;14.43;;
19554;SDS011;9924;50.828;6.440;2022-07-23T04:47:31;33.42;;;13.93;;
19554;SDS011;9924;50.828;6.440;2022-07-23T04:49:57;34.85;;;13.48;;
19554;SDS011;9924;50.828;6.440;2022-07-23T04:52:23;36.95;;;15.98;;
19554;SDS011;9924;50.828;6.440;2022-07-23T04:54:49;32.15;;;15.13;;
19554;SDS011;9924;50.828;6.440;2022-07-23T04:57:15;38.78;;;17.33;;
19554;SDS011;9924;50.828;6.440;2022-07-23T04:59:41;41.08;;;17.05;;
19554;SDS011;9924;50.828;6.440;2022-07-23T05:02:07;37.28;;;17.13;;
19554;SDS011;9924;50.828;6.440;2022-07-23T05:04:32;32.67;;;17.55;;
19554;SDS011;9924;50.828;6.440;2022-07-23T05:06:58;43.67;;;18.55;;
19554;SDS011;9924;50.828;6.440;2022-07-23T05:09:24;57.72;;;21.60;;
19554;SDS011;9924;50.828;6.440;2022-07-23T05:11:50;51.10;;;20.38;;
19554;SDS011;9924;50.828;6.440;2022-07-23T05:14:16;42.40;;;20.58;;
19554;SDS011;9924;50.828;6.440;2022-07-23T05:16:42;41.63;;;20.77;;
19554;SDS011;9924;50.828;6.440;2022-07-23T05:19:08;42.00;;;21.35;;
19554;SDS011;9924;50.828;6.440;2022-07-23T05:21:34;54.72;;;23.10;;
19554;SDS011;9924;50.828;6.440;2022-07-23T05:24:00;44.40;;;21.60;;
19554;SDS011;9924;50.828;6.440;2022-07-23T05:26:26;41.35;;;21.27;;
19554;SDS011;9924;50.828;6.440;2022-07-23T05:28:52;53.05;;;23.88;;
19554;SDS011;9924;50.828;6.440;2022-07-23T05:31:17;42.42;;;21.77;;
19554;SDS011;9924;50.828;6.440;2022-07-23T05:33:43;53.90;;;21.40;;
19554;SDS011;9924;50.828;6.440;2022-07-23T05:36:09;48.75;;;23.60;;
19554;SDS011;9924;50.828;6.440;2022-07-23T05:38:35;43.22;;;23.38;;
19554;SDS011;9924;50.828;6.440;2022-07-23T05:41:01;49.55;;;23.52;;
19554;SDS011;9924;50.828;6.440;2022-07-23T05:43:27;43.15;;;22.55;;
19554;SDS011;9924;50.828;6.440;2022-07-23T05:45:53;39.63;;;22.40;;
19554;SDS011;9924;50.828;6.440;2022-07-23T05:48:19;51.42;;;19.90;;
19554;SDS011;9924;50.828;6.440;2022-07-23T05:50:46;37.08;;;20.58;;
19554;SDS011;9924;50.828;6.440;2022-07-23T05:53:12;47.97;;;20.38;;
19554;SDS011;9924;50.828;6.440;2022-07-23T05:55:38;38.40;;;18.42;;
19554;SDS011;9924;50.828;6.440;2022-07-23T05:58:04;48.03;;;20.05;;
19554;SDS011;9924;50.828;6.440;2022-07-23T06:00:30;60.63;;;19.90;;
19554;SDS011;9924;50.828;6.440;2022-07-23T06:02:56;53.67;;;20.67;;
19554;SDS011;9924;50.828;6.440;2022-07-23T06:05:22;38.70;;;20.73;;
19554;SDS011;9924;50.828;6.440;2022-07-23T06:07:48;33.85;;;20.92;;
19554;SDS011;9924;50.828;6.440;2022-07-23T06:10:14;50.53;;;24.27;;
19554;SDS011;9924;50.828;6.440;2022-07-23T06:12:40;41.25;;;23.63;;
19554;SDS011;9924;50.828;6.440;2022-07-23T06:15:06;46.78;;;26.00;;
19554;SDS011;9924;50.828;6.440;2022-07-23T06:17:33;47.72;;;26.60;;
19554;SDS011;9924;50.828;6.440;2022-07-23T06:19:58;51.08;;;26.42;;
19554;SDS011;9924;50.828;6.440;2022-07-23T06:22:24;44.47;;;24.77;;
19554;SDS011;9924;50.828;6.440;2022-07-23T06:24:50;46.83;;;27.42;;
19554;SDS011;9924;50.828;6.440;2022-07-23T06:27:19;44.88;;;25.73;;
19554;SDS011;9924;50.828;6.440;2022-07-23T06:29:44;38.90;;;23.45;;
19554;SDS011;9924;50.828;6.440;2022-07-23T06:32:10;42.92;;;26.30;;
19554;SDS011;9924;50.828;6.440;2022-07-23T06:34:36;45.70;;;25.45;;
19554;SDS011;9924;50.828;6.440;2022-07-23T06:37:02;45.00;;;25.85;;
19554;SDS011;9924;50.828;6.440;2022-07-23T06:39:28;42.90;;;25.42;;
19554;SDS011;9924;50.828;6.440;2022-07-23T06:41:54;41.05;;;25.42;;
19554;SDS011;9924;50.828;6.440;2022-07-23T06:44:19;38.92;;;24.15;;
19554;SDS011;9924;50.828;6.440;2022-07-23T06:46:45;34.42;;;23.23;;
19554;SDS011;9924;50.828;6.440;2022-07-23T06:49:12;30.42;;;22.27;;
19554;SDS011;9924;50.828;6.440;2022-07-23T06:51:38;38.50;;;25.27;;
19554;SDS011;9924;50.828;6.440;2022-07-23T06:54:04;33.38;;;21.92;;
19554;SDS011;9924;50.828;6.440;2022-07-23T06:56:30;36.30;;;22.25;;
19554;SDS011;9924;50.828;6.440;2022-07-23T06:58:56;33.45;;;22.23;;
19554;SDS011;9924;50.828;6.440;2022-07-23T07:01:22;33.25;;;22.08;;
19554;SDS011;9924;50.828;6.440;2022-07-23T07:03:48;29.65;;;21.65;;
19554;SDS011;9924;50.828;6.440;2022-07-23T07:06:14;29.88;;;21.75;;
19554;SDS011;9924;50.828;6.440;2022-07-23T07:08:40;28.88;;;21.33;;
19554;SDS011;9924;50.828;6.440;2022-07-23T07:11:08;30.98;;;21.80;;
19554;SDS011;9924;50.828;6.440;2022-07-23T07:13:34;34.67;;;22.25;;
19554;SDS011;9924;50.828;6.440;2022-07-23T07:16:00;33.75;;;22.05;;
19554;SDS011;9924;50.828;6.440;2022-07-23T07:18:26;29.30;;;22.02;;
19554;SDS011;9924;50.828;6.440;2022-07-23T07:20:52;30.67;;;22.88;;
19554;SDS011;9924;50.828;6.440;2022-07-23T07:23:18;33.45;;;21.50;;
19554;SDS011;9924;50.828;6.440;2022-07-23T07:25:45;27.52;;;20.48;;
19554;SDS011;9924;50.828;6.440;2022-07-23T07:28:11;32.17;;;19.58;;
19554;SDS011;9924;50.828;6.440;2022-07-23T07:30:37;24.52;;;18.27;;
19554;SDS011;9924;50.828;6.440;2022-07-23T07:33:03;24.80;;;17.48;;
19554;SDS011;9924;50.828;6.440;2022-07-23T07:35:29;29.17;;;19.38;;
19554;SDS011;9924;50.828;6.440;2022-07-23T07:37:57;30.83;;;19.27;;
19554;SDS011;9924;50.828;6.440;2022-07-23T07:40:23;26.80;;;19.05;;
19554;SDS011;9924;50.828;6.440;2022-07-23T07:42:50;28.13;;;19.88;;
19554;SDS011;9924;50.828;6.440;2022-07-23T07:45:17;31.23;;;20.08;;
19554;SDS011;9924;50.828;6.440;2022-07-23T07:47:45;30.92;;;19.95;;
19554;SDS011;9924;50.828;6.440;2022-07-23T07:50:12;28.27;;;19.65;;
19554;SDS011;9924;50.828;6.440;2022-07-23T07:52:38;25.98;;;19.27;;
19554;SDS011;9924;50.828;6.440;2022-07-23T07:55:04;28.25;;;19.70;;
19554;SDS011;9924;50.828;6.440;2022-07-23T07:57:31;24.77;;;17.50;;
19554;SDS011;9924;50.828;6.440;2022-07-23T07:59:57;23.70;;;17.95;;
19554;SDS011;9924;50.828;6.440;2022-07-23T08:02:24;24.83;;;16.95;;
19554;SDS011;9924;50.828;6.440;2022-07-23T08:04:50;24.38;;;16.88;;
19554;SDS011;9924;50.828;6.440;2022-07-23T08:07:15;25.73;;;18.65;;
19554;SDS011;9924;50.828;6.440;2022-07-23T08:09:42;22.73;;;17.45;;
19554;SDS011;9924;50.828;6.440;2022-07-23T08:12:08;25.75;;;17.92;;
19554;SDS011;9924;50.828;6.440;2022-07-23T08:14:34;26.02;;;16.60;;
19554;SDS011;9924;50.828;6.440;2022-07-23T08:16:59;19.27;;;14.90;;
19554;SDS011;9924;50.828;6.440;2022-07-23T08:19:25;26.63;;;16.27;;
19554;SDS011;9924;50.828;6.440;2022-07-23T08:21:51;23.05;;;15.45;;
19554;SDS011;9924;50.828;6.440;2022-07-23T08:24:17;20.35;;;15.50;;
19554;SDS011;9924;50.828;6.440;2022-07-23T08:26:43;24.85;;;16.92;;
19554;SDS011;9924;50.828;6.440;2022-07-23T08:29:09;28.38;;;18.60;;
19554;SDS011;9924;50.828;6.440;2022-07-23T08:31:35;25.15;;;16.60;;
19554;SDS011;9924;50.828;6.440;2022-07-23T08:34:02;24.98;;;15.77;;
19554;SDS011;9924;50.828;6.440;2022-07-23T08:36:28;24.02;;;15.63;;
19554;SDS011;9924;50.828;6.440;2022-07-23T08:38:57;25.40;;;16.17;;
19554;SDS011;9924;50.828;6.440;2022-07-23T08:41:24;23.35;;;17.13;;
19554;SDS011;9924;50.828;6.440;2022-07-23T08:43:50;23.92;;;17.27;;
19554;SDS011;9924;50.828;6.440;2022-07-23T08:46:18;24.90;;;14.70;;
19554;SDS011;9924;50.828;6.440;2022-07-23T08:48:44;23.35;;;15.50;;
19554;SDS011;9924;50.828;6.440;2022-07-23T08:51:14;20.85;;;14.20;;
19554;SDS011;9924;50.828;6.440;2022-07-23T08:53:40;21.55;;;14.90;;
19554;SDS011;9924;50.828;6.440;2022-07-23T08:56:07;18.40;;;11.93;;
19554;SDS011;9924;50.828;6.440;2022-07-23T08:58:33;15.70;;;12.13;;
19554;SDS011;9924;50.828;6.440;2022-07-23T09:01:00;17.65;;;12.60;;
19554;SDS011;9924;50.828;6.440;2022-07-23T09:03:27;17.92;;;13.88;;
19554;SDS011;9924;50.828;6.440;2022-07-23T09:05:55;21.25;;;13.82;;
19554;SDS011;9924;50.828;6.440;2022-07-23T09:08:23;20.23;;;14.65;;
19554;SDS011;9924;50.828;6.440;2022-07-23T09:10:55;15.45;;;12.27;;
19554;SDS011;9924;50.828;6.440;2022-07-23T09:16:05;18.73;;;14.15;;
19554;SDS011;9924;50.828;6.440;2022-07-23T09:18:51;15.25;;;11.77;;
19554;SDS011;9924;50.828;6.440;2022-07-23T09:24:07;15.32;;;11.30;;
19554;SDS011;9924;50.828;6.440;2022-07-23T09:29:09;15.07;;;12.15;;
19554;SDS011;9924;50.828;6.440;2022-07-23T09:31:57;16.95;;;12.95;;
19554;SDS011;9924;50.828;6.440;2022-07-23T09:34:28;19.08;;;13.43;;
19554;SDS011;9924;50.828;6.440;2022-07-23T09:37:13;14.90;;;11.43;;
19554;SDS011;9924;50.828;6.440;2022-07-23T09:39:43;18.77;;;13.48;;
19554;SDS011;9924;50.828;6.440;2022-07-23T09:44:44;13.15;;;9.85;;
19554;SDS011;9924;50.828;6.440;2022-07-23T09:47:12;15.90;;;12.25;;
19554;SDS011;9924;50.828;6.440;2022-07-23T09:49:38;17.73;;;12.15;;
19554;SDS011;9924;50.828;6.440;2022-07-23T09:52:04;16.98;;;11.50;;
19554;SDS011;9924;50.828;6.440;2022-07-23T09:57:03;12.30;;;10.93;;
19554;SDS011;9924;50.828;6.440;2022-07-23T09:59:35;15.60;;;11.45;;
19554;SDS011;9924;50.828;6.440;2022-07-23T10:02:03;14.05;;;11.40;;
19554;SDS011;9924;50.828;6.440;2022-07-23T10:04:31;12.65;;;10.55;;
19554;SDS011;9924;50.828;6.440;2022-07-23T10:06:58;11.65;;;9.35;;
19554;SDS011;9924;50.828;6.440;2022-07-23T10:09:30;14.35;;;10.55;;
19554;SDS011;9924;50.828;6.440;2022-07-23T10:11:59;12.98;;;9.73;;
19554;SDS011;9924;50.828;6.440;2022-07-23T10:14:34;10.98;;;8.18;;
19554;SDS011;9924;50.828;6.440;2022-07-23T10:17:01;8.07;;;7.00;;
19554;SDS011;9924;50.828;6.440;2022-07-23T10:19:28;13.38;;;7.88;;
19554;SDS011;9924;50.828;6.440;2022-07-23T10:21:57;9.27;;;6.53;;
19554;SDS011;9924;50.828;6.440;2022-07-23T10:27:23;10.52;;;6.82;;
19554;SDS011;9924;50.828;6.440;2022-07-23T10:38:34;5.55;;;4.65;;
19554;SDS011;9924;50.828;6.440;2022-07-23T10:41:08;7.10;;;5.00;;
19554;SDS011;9924;50.828;6.440;2022-07-23T10:43:34;7.13;;;4.90;;
19554;SDS011;9924;50.828;6.440;2022-07-23T10:46:20;6.45;;;4.85;;
19554;SDS011;9924;50.828;6.440;2022-07-23T10:54:39;8.50;;;4.18;;
19554;SDS011;9924;50.828;6.440;2022-07-23T10:57:09;6.82;;;4.18;;
19554;SDS011;9924;50.828;6.440;2022-07-23T11:02:37;8.93;;;2.83;;
19554;SDS011;9924;50.828;6.440;2022-07-23T11:05:06;7.57;;;3.20;;
19554;SDS011;9924;50.828;6.440;2022-07-23T11:07:33;6.80;;;4.05;;
19554;SDS011;9924;50.828;6.440;2022-07-23T11:10:00;9.32;;;4.03;;
19554;SDS011;9924;50.828;6.440;2022-07-23T11:17:34;9.50;;;5.10;;
19554;SDS011;9924;50.828;6.440;2022-07-23T11:22:39;3.75;;;2.80;;
19554;SDS011;9924;50.828;6.440;2022-07-23T11:25:08;5.25;;;3.38;;
19554;SDS011;9924;50.828;6.440;2022-07-23T11:27:42;5.57;;;4.13;;
19554;SDS011;9924;50.828;6.440;2022-07-23T11:30:10;5.32;;;3.50;;
19554;SDS011;9924;50.828;6.440;2022-07-23T11:35:34;4.15;;;3.35;;
19554;SDS011;9924;50.828;6.440;2022-07-23T11:38:20;8.13;;;3.40;;
19554;SDS011;9924;50.828;6.440;2022-07-23T11:40:48;6.72;;;2.85;;
19554;SDS011;9924;50.828;6.440;2022-07-23T11:43:19;7.68;;;3.47;;
19554;SDS011;9924;50.828;6.440;2022-07-23T11:45:47;7.95;;;4.78;;
19554;SDS011;9924;50.828;6.440;2022-07-23T11:48:20;7.32;;;4.18;;
19554;SDS011;9924;50.828;6.440;2022-07-23T11:50:51;8.80;;;3.90;;
19554;SDS011;9924;50.828;6.440;2022-07-23T11:53:21;4.95;;;3.20;;
19554;SDS011;9924;50.828;6.440;2022-07-23T11:55:51;7.65;;;4.70;;
19554;SDS011;9924;50.828;6.440;2022-07-23T11:58:18;5.20;;;3.83;;
19554;SDS011;9924;50.828;6.440;2022-07-23T12:00:44;5.57;;;3.70;;
19554;SDS011;9924;50.828;6.440;2022-07-23T12:03:09;6.40;;;4.18;;
19554;SDS011;9924;50.828;6.440;2022-07-23T12:05:36;5.00;;;3.30;;
19554;SDS011;9924;50.828;6.440;2022-07-23T12:08:04;3.50;;;2.53;;
19554;SDS011;9924;50.828;6.440;2022-07-23T12:10:38;3.50;;;2.63;;
19554;SDS011;9924;50.828;6.440;2022-07-23T12:13:13;6.20;;;2.58;;
19554;SDS011;9924;50.828;6.440;2022-07-23T12:15:44;4.40;;;2.50;;
19554;SDS011;9924;50.828;6.440;2022-07-23T12:18:12;4.85;;;3.08;;
19554;SDS011;9924;50.828;6.440;2022-07-23T12:20:42;7.40;;;2.95;;
19554;SDS011;9924;50.828;6.440;2022-07-23T12:23:10;5.65;;;3.15;;
19554;SDS011;9924;50.828;6.440;2022-07-23T12:25:41;7.03;;;3.60;;
19554;SDS011;9924;50.828;6.440;2022-07-23T12:30:39;6.05;;;3.60;;
19554;SDS011;9924;50.828;6.440;2022-07-23T12:33:10;6.47;;;3.63;;
19554;SDS011;9924;50.828;6.440;2022-07-23T12:35:43;4.75;;;2.75;;
19554;SDS011;9924;50.828;6.440;2022-07-23T12:38:18;7.20;;;3.72;;
19554;SDS011;9924;50.828;6.440;2022-07-23T12:40:46;7.32;;;3.35;;
19554;SDS011;9924;50.828;6.440;2022-07-23T12:48:32;4.45;;;2.20;;
19554;SDS011;9924;50.828;6.440;2022-07-23T12:51:34;4.00;;;2.13;;
19554;SDS011;9924;50.828;6.440;2022-07-23T12:53:57;3.05;;;2.28;;
19554;SDS011;9924;50.828;6.440;2022-07-23T12:56:45;7.75;;;2.85;;
19554;SDS011;9924;50.828;6.440;2022-07-23T12:59:13;4.55;;;2.83;;
19554;SDS011;9924;50.828;6.440;2022-07-23T13:01:44;5.95;;;3.13;;
19554;SDS011;9924;50.828;6.440;2022-07-23T13:04:19;6.68;;;3.70;;
19554;SDS011;9924;50.828;6.440;2022-07-23T13:06:50;4.72;;;3.30;;
19554;SDS011;9924;50.828;6.440;2022-07-23T13:09:22;6.30;;;3.15;;
19554;SDS011;9924;50.828;6.440;2022-07-23T13:11:49;5.18;;;2.88;;
19554;SDS011;9924;50.828;6.440;2022-07-23T13:14:16;3.80;;;2.40;;
19554;SDS011;9924;50.828;6.440;2022-07-23T13:16:43;5.13;;;2.03;;
19554;SDS011;9924;50.828;6.440;2022-07-23T13:19:10;4.03;;;2.60;;
19554;SDS011;9924;50.828;6.440;2022-07-23T13:21:36;5.35;;;2.90;;
19554;SDS011;9924;50.828;6.440;2022-07-23T13:24:02;4.88;;;3.22;;
19554;SDS011;9924;50.828;6.440;2022-07-23T13:26:28;5.63;;;2.70;;
19554;SDS011;9924;50.828;6.440;2022-07-23T13:28:54;7.97;;;3.42;;
19554;SDS011;9924;50.828;6.440;2022-07-23T13:31:20;4.28;;;3.03;;
19554;SDS011;9924;50.828;6.440;2022-07-23T13:33:46;4.72;;;2.88;;
19554;SDS011;9924;50.828;6.440;2022-07-23T13:36:11;3.85;;;3.08;;
19554;SDS011;9924;50.828;6.440;2022-07-23T13:38:37;5.55;;;2.70;;
19554;SDS011;9924;50.828;6.440;2022-07-23T13:41:04;5.60;;;2.60;;
19554;SDS011;9924;50.828;6.440;2022-07-23T13:43:30;5.25;;;2.67;;
19554;SDS011;9924;50.828;6.440;2022-07-23T13:45:56;5.15;;;2.90;;
19554;SDS011;9924;50.828;6.440;2022-07-23T13:48:22;3.20;;;2.47;;
19554;SDS011;9924;50.828;6.440;2022-07-23T13:50:49;4.40;;;3.15;;
19554;SDS011;9924;50.828;6.440;2022-07-23T13:53:16;6.88;;;3.65;;
19554;SDS011;9924;50.828;6.440;2022-07-23T13:55:47;3.60;;;2.60;;
19554;SDS011;9924;50.828;6.440;2022-07-23T13:58:14;2.85;;;2.30;;
19554;SDS011;9924;50.828;6.440;2022-07-23T14:00:42;5.22;;;3.63;;
19554;SDS011;9924;50.828;6.440;2022-07-23T14:03:16;5.10;;;3.08;;
19554;SDS011;9924;50.828;6.440;2022-07-23T14:05:43;6.80;;;3.25;;
19554;SDS011;9924;50.828;6.440;2022-07-23T14:08:09;6.20;;;2.38;;
19554;SDS011;9924;50.828;6.440;2022-07-23T14:10:35;5.45;;;2.80;;
19554;SDS011;9924;50.828;6.440;2022-07-23T14:13:01;5.25;;;2.58;;
19554;SDS011;9924;50.828;6.440;2022-07-23T14:15:28;5.45;;;2.83;;
19554;SDS011;9924;50.828;6.440;2022-07-23T14:17:56;2.88;;;2.22;;
19554;SDS011;9924;50.828;6.440;2022-07-23T14:20:22;5.88;;;2.40;;
19554;SDS011;9924;50.828;6.440;2022-07-23T14:22:48;5.07;;;2.80;;
19554;SDS011;9924;50.828;6.440;2022-07-23T14:25:14;6.75;;;3.10;;
19554;SDS011;9924;50.828;6.440;2022-07-23T14:27:41;5.35;;;3.10;;
19554;SDS011;9924;50.828;6.440;2022-07-23T14:30:08;4.80;;;3.35;;
19554;SDS011;9924;50.828;6.440;2022-07-23T14:32:34;4.38;;;3.00;;
19554;SDS011;9924;50.828;6.440;2022-07-23T14:35:01;4.10;;;2.30;;
19554;SDS011;9924;50.828;6.440;2022-07-23T14:37:28;4.95;;;3.10;;
19554;SDS011;9924;50.828;6.440;2022-07-23T14:39:54;6.85;;;2.90;;
19554;SDS011;9924;50.828;6.440;2022-07-23T14:42:20;6.05;;;2.55;;
19554;SDS011;9924;50.828;6.440;2022-07-23T14:44:46;5.57;;;2.58;;
19554;SDS011;9924;50.828;6.440;2022-07-23T14:47:12;5.40;;;2.55;;
19554;SDS011;9924;50.828;6.440;2022-07-23T14:49:38;6.25;;;2.97;;
19554;SDS011;9924;50.828;6.440;2022-07-23T14:52:04;8.50;;;2.65;;
19554;SDS011;9924;50.828;6.440;2022-07-23T14:54:30;4.18;;;2.53;;
19554;SDS011;9924;50.828;6.440;2022-07-23T14:56:57;4.10;;;2.78;;
19554;SDS011;9924;50.828;6.440;2022-07-23T14:59:24;5.45;;;3.42;;
19554;SDS011;9924;50.828;6.440;2022-07-23T15:01:50;4.15;;;2.60;;
19554;SDS011;9924;50.828;6.440;2022-07-23T15:04:17;5.75;;;2.97;;
19554;SDS011;9924;50.828;6.440;2022-07-23T15:06:42;5.75;;;4.25;;
19554;SDS011;9924;50.828;6.440;2022-07-23T15:09:09;4.50;;;2.70;;
19554;SDS011;9924;50.828;6.440;2022-07-23T15:11:35;5.25;;;2.58;;
19554;SDS011;9924;50.828;6.440;2022-07-23T15:14:05;3.50;;;2.40;;
19554;SDS011;9924;50.828;6.440;2022-07-23T15:16:32;3.70;;;2.70;;
19554;SDS011;9924;50.828;6.440;2022-07-23T15:18:58;3.35;;;2.53;;
19554;SDS011;9924;50.828;6.440;2022-07-23T15:21:24;4.75;;;2.50;;
19554;SDS011;9924;50.828;6.440;2022-07-23T15:23:50;3.33;;;2.60;;
19554;SDS011;9924;50.828;6.440;2022-07-23T15:26:17;3.55;;;2.53;;
19554;SDS011;9924;50.828;6.440;2022-07-23T15:28:43;3.13;;;2.35;;
19554;SDS011;9924;50.828;6.440;2022-07-23T15:31:09;4.85;;;2.25;;
19554;SDS011;9924;50.828;6.440;2022-07-23T15:33:36;2.58;;;2.25;;
19554;SDS011;9924;50.828;6.440;2022-07-23T15:36:02;3.88;;;2.78;;